Time;durP1;ratioP1;P1;durP2;ratioP2;P2;SDS_P1;SDS_P2;PMS_P1;PMS_P2;Temp;Humidity;BMP_temperature;BMP_pressure;BME280_temperature;BME280_humidity;BME280_pressure;Samples;Min_cycle;Max_cycle;Signal;HPM_P1;HPM_P2
2022/09/21 00:00:16;;;;;;;8.90;5.70;;;;;;;9.59;82.69;100245.00;106424;1271;108774;-70
2022/09/21 00:03:09;;;;;;;9.40;5.90;;;;;;;9.62;82.72;100245.61;106339;1271;138541;-69
2022/09/21 00:05:41;;;;;;;8.40;5.40;;;;;;;9.64;82.76;100247.81;106400;1270;97959;-71
2022/09/21 00:08:14;;;;;;;9.00;6.40;;;;;;;9.66;82.75;100247.39;106367;1270;112489;-70
2022/09/21 00:10:51;;;;;;;10.30;6.10;;;;;;;9.66;82.72;100245.66;106206;1270;138492;-70
2022/09/21 00:13:25;;;;;;;8.30;5.90;;;;;;;9.67;82.67;100243.18;107066;1270;107987;-70
2022/09/21 00:15:57;;;;;;;9.10;5.80;;;;;;;9.68;82.68;100244.39;106349;1270;138379;-70
2022/09/21 00:18:30;;;;;;;9.70;6.10;;;;;;;9.69;82.69;100244.02;106428;1271;97943;-70
2022/09/21 00:21:02;;;;;;;8.70;6.10;;;;;;;9.70;82.82;100241.40;106346;1270;139331;-70
2022/09/21 00:23:36;;;;;;;14.50;9.20;;;;;;;9.72;82.83;100242.41;106476;1271;108798;-71
2022/09/21 00:26:14;;;;;;;11.60;7.20;;;;;;;9.73;82.85;100242.70;106443;1271;108797;-70
2022/09/21 00:28:48;;;;;;;9.30;6.10;;;;;;;9.75;82.85;100243.19;106540;1270;138542;-71
2022/09/21 00:31:20;;;;;;;11.60;6.30;;;;;;;9.75;82.84;100244.93;106388;1268;97815;-70
2022/09/21 00:33:53;;;;;;;8.50;6.20;;;;;;;9.76;82.92;100246.29;106299;1270;139067;-69
2022/09/21 00:36:26;;;;;;;9.20;6.30;;;;;;;9.75;83.03;100245.60;106359;1271;109006;-70
2022/09/21 00:39:00;;;;;;;7.70;5.80;;;;;;;9.75;82.91;100244.39;106305;1270;138739;-70
2022/09/21 00:41:34;;;;;;;8.90;6.40;;;;;;;9.75;83.00;100242.64;106469;1271;97842;-70
2022/09/21 00:44:35;;;;;;;10.70;7.10;;;;;;;9.76;83.07;100245.39;106444;1271;97859;-70
2022/09/21 00:47:11;;;;;;;8.80;6.20;;;;;;;9.77;83.11;100248.14;106037;1274;112635;-70
2022/09/21 00:49:48;;;;;;;8.50;6.50;;;;;;;9.77;83.15;100246.92;106109;1273;107816;-70
2022/09/21 00:52:25;;;;;;;9.00;7.30;;;;;;;9.78;83.23;100246.73;105953;1271;138737;-70
2022/09/21 00:55:02;;;;;;;9.60;6.50;;;;;;;9.78;83.31;100249.15;106072;1274;97984;-70
2022/09/21 00:57:34;;;;;;;;;;;;;;;9.80;83.44;100250.66;105984;1274;138247;-70
2022/09/21 01:00:10;;;;;;;10.20;7.20;;;;;;;9.80;83.52;100248.73;106124;1273;112631;-70
2022/09/21 01:02:43;;;;;;;11.50;7.80;;;;;;;9.82;83.48;100250.79;105996;1274;138667;-71
2022/09/21 01:05:15;;;;;;;9.10;7.60;;;;;;;9.83;83.54;100246.59;106118;1273;108811;-69
2022/09/21 01:07:49;;;;;;;12.90;8.20;;;;;;;9.84;83.48;100249.34;106147;1273;97806;-71
2022/09/21 01:10:22;;;;;;;11.50;8.30;;;;;;;9.84;83.44;100248.30;106008;1273;138678;-71
2022/09/21 01:13:11;;;;;;;13.30;8.80;;;;;;;9.84;83.49;100248.80;106079;1273;112319;-71
2022/09/21 01:15:51;;;;;;;10.80;8.70;;;;;;;9.85;83.58;100247.20;106016;1274;138682;-70
2022/09/21 01:18:35;;;;;;;11.00;9.50;;;;;;;9.86;83.52;100250.65;106134;1273;109168;-71
2022/09/21 01:21:22;;;;;;;12.90;9.20;;;;;;;9.87;83.58;100252.02;106040;1274;138888;-71
2022/09/21 01:24:18;;;;;;;16.80;9.50;;;;;;;9.89;83.69;100255.63;106705;1271;97908;-71
2022/09/21 01:27:26;;;;;;;11.20;9.30;;;;;;;9.88;83.62;100255.30;106400;1271;138589;-70
2022/09/21 01:30:02;;;;;;;13.90;10.10;;;;;;;9.90;83.73;100260.29;106414;1270;107842;-70
2022/09/21 01:32:38;;;;;;;14.90;10.40;;;;;;;9.90;83.72;100260.81;106278;1270;139600;-71
2022/09/21 01:35:14;;;;;;;12.10;9.60;;;;;;;9.91;83.81;100264.05;106431;1271;97834;-71
2022/09/21 01:37:52;;;;;;;11.00;9.30;;;;;;;9.93;83.79;100265.91;106465;1271;97808;-71
2022/09/21 01:40:28;;;;;;;14.80;9.70;;;;;;;9.95;83.85;100265.14;106537;1270;138302;-71
2022/09/21 01:43:09;;;;;;;14.00;10.00;;;;;;;9.96;83.81;100269.98;106467;1271;108915;-71
2022/09/21 01:45:45;;;;;;;12.80;10.10;;;;;;;9.97;83.77;100265.79;106324;1270;139473;-70
2022/09/21 01:48:21;;;;;;;13.00;11.10;;;;;;;9.98;83.87;100267.13;106433;1271;98338;-70
2022/09/21 01:50:56;;;;;;;13.30;10.60;;;;;;;9.98;83.79;100269.92;106330;1271;138778;-70
2022/09/21 01:53:35;;;;;;;16.90;11.20;;;;;;;9.99;83.78;100272.16;106473;1270;111615;-71
2022/09/21 01:56:13;;;;;;;14.10;11.20;;;;;;;9.99;83.78;100272.51;106452;1271;107864;-71
2022/09/21 01:58:50;;;;;;;15.90;11.20;;;;;;;9.99;83.87;100272.69;106300;1271;139190;-71
2022/09/21 02:01:25;;;;;;;14.60;12.20;;;;;;;9.98;83.76;100273.23;106433;1271;98426;-71
2022/09/21 02:04:01;;;;;;;12.90;11.50;;;;;;;9.97;83.82;100279.67;106276;1270;138667;-71
2022/09/21 02:06:33;;;;;;;14.40;12.00;;;;;;;9.97;83.80;100280.03;106327;1271;113234;-71
2022/09/21 02:09:06;;;;;;;15.70;11.60;;;;;;;9.98;83.99;100284.53;106228;1271;139902;-71
2022/09/21 02:11:41;;;;;;;16.60;12.10;;;;;;;9.99;83.95;100285.02;106311;1271;108895;-71
2022/09/21 02:14:17;;;;;;;15.10;12.60;;;;;;;10.00;83.92;100282.20;106370;1270;97835;-71
2022/09/21 02:17:01;;;;;;;15.30;11.90;;;;;;;10.00;83.90;100282.88;106294;1270;139173;-72
2022/09/21 02:19:40;;;;;;;15.90;11.90;;;;;;;10.00;83.99;100286.53;106376;1271;112519;-72
2022/09/21 02:22:17;;;;;;;16.00;11.90;;;;;;;10.02;84.08;100285.96;106339;1271;139861;-71
2022/09/21 02:24:54;;;;;;;15.00;12.20;;;;;;;10.02;83.97;100287.34;106431;1271;108911;-72
2022/09/21 02:27:35;;;;;;;15.70;11.10;;;;;;;10.03;83.97;100288.71;106315;1271;138847;-71
2022/09/21 02:30:10;;;;;;;16.50;11.90;;;;;;;10.03;83.99;100284.71;106770;1271;97838;-72
2022/09/21 02:32:50;;;;;;;16.80;12.10;;;;;;;10.04;84.07;100288.85;106229;1271;139008;-72
2022/09/21 02:35:32;;;;;;;14.80;11.80;;;;;;;10.06;84.08;100289.67;106367;1271;107669;-71
2022/09/21 02:38:15;;;;;;;18.50;11.50;;;;;;;10.08;84.10;100288.08;106394;1271;107278;-71
2022/09/21 02:40:56;;;;;;;15.10;12.00;;;;;;;10.10;84.11;100290.44;106204;1270;138696;-71
2022/09/21 02:43:34;;;;;;;17.30;12.00;;;;;;;10.10;83.88;100286.96;106321;1271;99172;-71
2022/09/21 02:46:12;;;;;;;15.60;11.00;;;;;;;10.09;83.95;100291.17;107813;1270;139326;-72
2022/09/21 02:48:48;;;;;;;17.60;12.70;;;;;;;10.07;83.92;100295.04;107245;1270;108799;-71
2022/09/21 02:51:25;;;;;;;17.20;12.00;;;;;;;10.07;83.81;100297.66;106238;1269;138880;-72
2022/09/21 02:53:59;;;;;;;16.10;12.80;;;;;;;10.07;84.03;100299.91;106396;1271;98485;-72
2022/09/21 02:56:33;;;;;;;18.80;12.60;;;;;;;10.10;84.06;100301.39;106234;1271;139110;-71
2022/09/21 02:59:07;;;;;;;17.80;13.20;;;;;;;10.10;83.88;100301.39;106357;1271;112942;-71
2022/09/21 03:01:41;;;;;;;19.20;14.30;;;;;;;10.09;83.93;100300.55;106386;1271;109105;-72
2022/09/21 03:04:13;;;;;;;18.30;13.20;;;;;;;10.07;83.98;100296.42;106241;1269;139148;-72
2022/09/21 03:06:45;;;;;;;18.20;13.50;;;;;;;10.08;84.00;100302.66;106401;1270;97960;-72
2022/09/21 03:09:18;;;;;;;16.80;13.00;;;;;;;10.07;83.92;100304.23;106246;1271;139236;-73
2022/09/21 03:11:50;;;;;;;20.70;13.70;;;;;;;10.08;84.13;100302.32;106456;1271;112411;-71
2022/09/21 03:14:22;;;;;;;16.00;12.60;;;;;;;10.07;83.95;100302.35;106406;1270;108925;-71
2022/09/21 03:16:54;;;;;;;18.50;13.00;;;;;;;10.05;84.09;100300.98;106442;1271;108783;-71
2022/09/21 03:19:27;;;;;;;15.00;12.50;;;;;;;10.05;84.08;100304.11;106383;1271;97890;-71
2022/09/21 03:21:59;;;;;;;21.70;13.40;;;;;;;10.05;84.17;100301.85;106293;1270;138715;-71
2022/09/21 03:24:46;;;;;;;16.80;12.80;;;;;;;10.04;84.17;100303.08;106351;1271;112609;-72
2022/09/21 03:27:21;;;;;;;16.70;12.50;;;;;;;10.04;84.29;100304.65;106244;1271;139090;-71
2022/09/21 03:29:53;;;;;;;17.20;12.30;;;;;;;10.05;84.41;100309.85;106392;1271;108772;-71
2022/09/21 03:32:29;;;;;;;;;;;;;;;10.06;84.43;100313.83;106309;1271;139033;-71
2022/09/21 03:35:01;;;;;;;14.40;11.30;;;;;;;10.05;84.48;100310.54;106437;1270;98387;-72
2022/09/21 03:37:33;;;;;;;15.70;11.90;;;;;;;10.05;84.46;100316.45;106426;1271;112250;-71
2022/09/21 03:40:12;;;;;;;13.60;11.10;;;;;;;10.05;84.48;100319.23;106358;1271;139278;-71
2022/09/21 03:42:45;;;;;;;18.60;11.90;;;;;;;10.05;84.61;100316.44;106580;1270;108983;-72
2022/09/21 03:45:18;;;;;;;15.90;11.50;;;;;;;10.07;84.67;100317.46;106178;1271;139199;-72
2022/09/21 03:47:50;;;;;;;14.30;11.40;;;;;;;10.09;84.77;100321.92;106353;1271;97677;-71
2022/09/21 03:50:22;;;;;;;17.30;10.80;;;;;;;10.10;84.74;100319.09;106348;1270;112863;-71
2022/09/21 03:52:54;;;;;;;13.90;10.60;;;;;;;10.11;84.77;100318.18;106294;1271;109081;-71
2022/09/21 03:55:28;;;;;;;19.20;11.40;;;;;;;10.12;84.63;100319.40;106365;1271;108402;-72
2022/09/21 03:58:01;;;;;;;16.60;11.20;;;;;;;10.11;84.73;100320.27;106239;1269;141032;-72
2022/09/21 04:00:33;;;;;;;16.20;11.60;;;;;;;10.13;84.77;100318.66;106332;1269;100358;-71
2022/09/21 04:03:05;;;;;;;15.20;10.90;;;;;;;10.13;84.69;100320.23;106238;1271;139342;-71
2022/09/21 04:05:38;;;;;;;13.00;11.10;;;;;;;10.14;84.70;100328.70;106418;1271;108940;-71
2022/09/21 04:08:10;;;;;;;11.90;10.40;;;;;;;10.13;84.65;100327.86;106379;1271;109059;-71
2022/09/21 04:10:43;;;;;;;17.70;11.00;;;;;;;10.13;84.77;100331.33;106271;1271;138987;-71
2022/09/21 04:13:15;;;;;;;14.10;10.60;;;;;;;10.14;84.84;100331.66;106325;1270;96695;-71
2022/09/21 04:15:47;;;;;;;11.50;10.30;;;;;;;10.15;84.84;100329.70;106297;1271;138678;-71
2022/09/21 04:18:19;;;;;;;12.00;9.70;;;;;;;10.15;84.82;100333.37;106376;1270;108817;-72
2022/09/21 04:20:51;;;;;;;17.30;10.50;;;;;;;10.14;84.87;100338.24;106272;1271;139072;-71
2022/09/21 04:23:23;;;;;;;15.60;10.60;;;;;;;10.15;84.96;100337.88;106472;1270;97858;-71
2022/09/21 04:25:56;;;;;;;12.50;10.40;;;;;;;10.16;84.93;100340.10;106434;1270;97707;-72
2022/09/21 04:28:28;;;;;;;12.60;9.80;;;;;;;10.17;85.10;100340.42;106430;1271;138727;-70
2022/09/21 04:31:01;;;;;;;10.80;9.50;;;;;;;10.18;85.03;100344.73;106478;1271;107853;-71
2022/09/21 04:33:33;;;;;;;11.50;9.40;;;;;;;10.20;85.07;100341.73;106164;1271;138740;-71
2022/09/21 04:36:06;;;;;;;12.60;9.60;;;;;;;10.21;85.06;100341.89;106449;1271;97927;-70
2022/09/21 04:38:39;;;;;;;13.50;9.90;;;;;;;10.22;85.15;100341.35;106284;1270;139057;-71
2022/09/21 04:41:12;;;;;;;14.70;10.10;;;;;;;10.22;85.04;100343.61;106684;1270;111419;-71
2022/09/21 04:43:45;;;;;;;12.80;10.00;;;;;;;10.23;85.16;100348.11;106311;1271;107262;-71
2022/09/21 04:46:19;;;;;;;12.50;9.90;;;;;;;10.23;85.13;100351.77;106908;1269;140401;-72
2022/09/21 04:48:52;;;;;;;13.80;10.60;;;;;;;10.25;85.05;100353.61;106392;1271;97809;-71
2022/09/21 04:51:24;;;;;;;15.50;10.20;;;;;;;10.26;84.98;100356.52;106470;1270;138787;-71
2022/09/21 04:53:56;;;;;;;12.70;10.70;;;;;;;10.27;85.05;100358.24;106486;1271;112495;-71
2022/09/21 04:56:28;;;;;;;14.60;10.20;;;;;;;10.29;85.08;100362.36;106389;1270;108980;-71
2022/09/21 04:59:00;;;;;;;12.60;9.80;;;;;;;10.31;85.14;100361.61;106482;1271;107733;-71
2022/09/21 05:01:33;;;;;;;13.30;10.10;;;;;;;10.33;85.17;100365.20;106396;1271;97957;-72
2022/09/21 05:04:05;;;;;;;11.90;10.60;;;;;;;10.35;85.11;100365.50;106307;1271;138915;-72
2022/09/21 05:06:38;;;;;;;11.90;10.20;;;;;;;10.35;85.11;100368.77;106481;1270;112591;-71
2022/09/21 05:12:01;;;;;;;17.30;11.10;;;;;;;10.36;84.87;100371.88;107111;1271;108873;-71
2022/09/21 05:14:34;;;;;;;11.60;10.20;;;;;;;10.36;84.92;100372.05;106293;1270;140238;-73
2022/09/21 05:17:06;;;;;;;13.40;9.60;;;;;;;10.38;85.02;100369.40;106377;1271;97918;-71
2022/09/21 05:19:38;;;;;;;12.70;9.60;;;;;;;10.41;85.03;100371.05;106307;1270;112629;-71
2022/09/21 05:22:10;;;;;;;11.30;9.40;;;;;;;10.44;85.04;100375.32;106320;1271;140145;-71
2022/09/21 05:24:42;;;;;;;12.30;10.40;;;;;;;10.47;84.95;100379.92;106330;1270;109819;-72
2022/09/21 05:27:15;;;;;;;12.00;9.50;;;;;;;10.48;84.76;100379.02;106321;1270;139195;-72
2022/09/21 05:29:48;;;;;;;10.80;9.70;;;;;;;10.50;84.90;100380.50;106387;1270;97808;-71
2022/09/21 05:32:27;;;;;;;13.60;9.20;;;;;;;10.53;84.81;100382.85;106355;1270;112766;-71
2022/09/21 05:35:12;;;;;;;11.30;10.10;;;;;;;10.56;84.78;100389.20;106327;1270;108874;-71
2022/09/21 05:37:52;;;;;;;11.40;9.30;;;;;;;10.58;84.72;100390.00;106380;1271;108859;-71
2022/09/21 05:40:25;;;;;;;11.40;10.00;;;;;;;10.61;84.75;100395.67;106207;1270;138664;-72
2022/09/21 05:42:58;;;;;;;13.10;10.10;;;;;;;10.63;84.61;100397.86;106642;1269;98199;-72
2022/09/21 05:45:32;;;;;;;12.90;10.30;;;;;;;10.66;84.67;100395.52;106366;1271;138752;-72
2022/09/21 05:48:13;;;;;;;12.30;10.60;;;;;;;10.69;84.57;100403.42;106474;1270;107859;-72
2022/09/21 05:50:54;;;;;;;13.30;10.70;;;;;;;10.70;84.49;100403.73;106295;1271;139041;-73
2022/09/21 05:53:59;;;;;;;12.70;9.90;;;;;;;10.73;84.44;100407.63;106479;1270;97843;-71
2022/09/21 05:56:42;;;;;;;12.80;10.20;;;;;;;10.77;84.42;100407.35;106320;1270;97880;-72
2022/09/21 05:59:40;;;;;;;13.40;10.50;;;;;;;10.80;84.51;100408.30;106365;1270;112236;-73
2022/09/21 06:02:22;;;;;;;11.50;9.60;;;;;;;10.84;84.35;100411.11;106383;1270;108808;-72
2022/09/21 06:04:56;;;;;;;11.40;9.20;;;;;;;10.88;84.04;100408.90;106359;1271;138862;-71
2022/09/21 06:07:28;;;;;;;10.00;8.50;;;;;;;10.90;83.86;100407.96;106393;1271;97886;-72
2022/09/21 06:10:00;;;;;;;9.90;8.70;;;;;;;10.96;83.81;100414.42;106334;1269;138580;-72
2022/09/21 06:12:33;;;;;;;9.80;8.00;;;;;;;11.00;83.83;100408.90;106351;1270;111549;-71
2022/09/21 06:15:06;;;;;;;9.00;7.10;;;;;;;11.02;83.73;100410.23;106353;1270;139450;-72
2022/09/21 06:17:38;;;;;;;9.80;7.80;;;;;;;11.05;83.61;100410.66;107166;1270;108873;-72
2022/09/21 06:20:12;;;;;;;10.10;8.10;;;;;;;11.06;83.33;100408.00;106332;1270;97950;-72
2022/09/21 06:22:44;;;;;;;14.20;8.20;;;;;;;11.08;83.29;100411.60;106182;1270;138886;-72
2022/09/21 06:25:18;;;;;;;9.30;7.90;;;;;;;11.09;83.20;100414.52;106376;1269;112518;-72
2022/09/21 06:27:51;;;;;;;10.00;7.90;;;;;;;11.14;83.35;100414.02;106128;1268;139317;-72
2022/09/21 06:30:23;;;;;;;8.70;7.80;;;;;;;11.21;83.26;100419.19;106289;1270;107190;-72
2022/09/21 06:32:58;;;;;;;11.60;8.20;;;;;;;11.28;83.12;100420.51;106150;1271;138842;-71
2022/09/21 06:35:31;;;;;;;9.30;7.30;;;;;;;11.39;82.99;100420.71;106260;1270;97818;-72
2022/09/21 06:38:05;;;;;;;12.30;7.30;;;;;;;11.48;82.66;100419.34;106228;1270;112614;-71
2022/09/21 06:40:38;;;;;;;8.60;6.20;;;;;;;11.52;82.29;100418.54;106236;1271;138812;-71
2022/09/21 06:43:10;;;;;;;8.00;5.50;;;;;;;11.54;81.94;100419.52;106243;1270;108839;-72
2022/09/21 06:45:42;;;;;;;6.30;5.40;;;;;;;11.62;81.61;100422.18;106182;1270;139395;-72
2022/09/21 06:48:14;;;;;;;7.70;4.90;;;;;;;11.93;81.79;100419.92;106383;1271;97703;-72
2022/09/21 06:50:46;;;;;;;8.70;4.70;;;;;;;12.29;81.06;100421.45;106187;1270;138998;-71
2022/09/21 06:53:19;;;;;;;8.00;4.90;;;;;;;12.44;80.63;100424.20;106156;1271;109261;-73
2022/09/21 06:55:52;;;;;;;4.80;4.20;;;;;;;12.55;80.34;100425.71;106279;1269;108872;-73
2022/09/21 06:58:24;;;;;;;6.50;4.40;;;;;;;12.88;80.12;100427.60;106276;1270;138806;-72
2022/09/21 07:00:56;;;;;;;5.40;3.90;;;;;;;13.10;79.17;100427.77;106338;1271;98526;-73
2022/09/21 07:03:30;;;;;;;5.10;3.70;;;;;;;13.13;78.31;100428.56;106240;1262;138461;-71
2022/09/21 07:06:02;;;;;;;4.80;4.20;;;;;;;13.10;77.71;100437.21;106254;1271;109320;-72
2022/09/21 07:08:34;;;;;;;5.10;3.70;;;;;;;13.05;77.60;100441.40;106080;1270;138868;-72
2022/09/21 07:11:27;;;;;;;6.80;4.70;;;;;;;13.05;77.32;100440.70;106227;1270;98605;-71
2022/09/21 07:13:59;;;;;;;6.50;4.80;;;;;;;13.32;77.17;100441.20;106209;1270;97841;-72
2022/09/21 07:16:32;;;;;;;7.40;3.80;;;;;;;13.48;76.57;100440.42;106302;1269;138564;-71
2022/09/21 07:19:04;;;;;;;6.00;3.30;;;;;;;13.49;76.11;100443.20;106402;1271;107834;-72
2022/09/21 07:21:44;;;;;;;5.00;3.20;;;;;;;13.58;76.22;100444.36;106201;1270;138507;-72
2022/09/21 07:24:16;;;;;;;5.40;2.70;;;;;;;13.86;75.77;100441.98;106275;1270;97851;-72
2022/09/21 07:26:48;;;;;;;4.30;3.10;;;;;;;13.98;75.32;100443.56;106183;1270;139259;-72
2022/09/21 07:29:20;;;;;;;3.50;2.50;;;;;;;14.09;74.76;100442.75;106374;1270;112025;-72
2022/09/21 07:31:52;;;;;;;6.50;2.70;;;;;;;14.65;75.50;100444.59;106371;1270;108874;-72
2022/09/21 07:34:25;;;;;;;4.60;2.50;;;;;;;16.18;74.40;100434.81;106318;1270;138566;-72
2022/09/21 07:36:57;;;;;;;4.60;2.40;;;;;;;17.21;71.97;100427.13;106326;1270;97812;-72
2022/09/21 07:39:29;;;;;;;3.10;1.90;;;;;;;17.42;69.63;100432.09;106317;1270;138149;-72
2022/09/21 07:42:01;;;;;;;3.20;1.90;;;;;;;17.53;68.47;100432.52;106324;1270;111741;-72
2022/09/21 07:44:34;;;;;;;3.60;1.70;;;;;;;18.21;67.77;100436.38;106293;1270;139672;-71
2022/09/21 07:47:07;;;;;;;2.90;1.50;;;;;;;19.32;66.97;100437.70;106421;1271;107724;-72
2022/09/21 07:49:39;;;;;;;1.60;1.40;;;;;;;20.50;64.91;100422.31;106412;1270;99385;-72
2022/09/21 07:52:11;;;;;;;2.70;1.30;;;;;;;21.49;63.09;100419.50;106268;1271;137653;-72
2022/09/21 07:54:43;;;;;;;1.90;1.00;;;;;;;22.10;60.86;100421.62;106314;1270;113446;-70
2022/09/21 08:00:08;;;;;;;2.90;1.40;;;;;;;21.21;58.06;100431.12;106380;1270;107758;-71
2022/09/21 08:02:44;;;;;;;3.80;1.40;;;;;;;20.58;57.90;100431.81;106371;1271;138075;-71
2022/09/21 08:05:18;;;;;;;1.70;1.40;;;;;;;20.05;57.86;100434.58;106380;1271;97947;-71
2022/09/21 08:07:51;;;;;;;1.40;1.10;;;;;;;19.56;58.04;100439.46;106394;1268;112853;-71
2022/09/21 08:10:25;;;;;;;3.00;1.40;;;;;;;19.10;58.07;100442.48;106251;1270;137968;-72
2022/09/21 08:12:57;;;;;;;2.50;1.20;;;;;;;18.80;58.69;100445.83;106407;1269;107966;-71
2022/09/21 08:15:29;;;;;;;1.60;1.50;;;;;;;18.52;58.68;100445.57;106278;1268;137959;-72
2022/09/21 08:18:20;;;;;;;4.00;1.50;;;;;;;18.34;59.15;100445.65;106374;1268;97750;-72
2022/09/21 08:20:57;;;;;;;9.10;1.50;;;;;;;19.17;59.61;100450.10;106248;1268;137821;-72
2022/09/21 08:23:30;;;;;;;2.50;1.30;;;;;;;19.80;58.60;100446.17;106375;1270;108139;-71
2022/09/21 08:26:05;;;;;;;3.20;1.30;;;;;;;19.60;57.82;100452.12;106254;1270;109122;-71
2022/09/21 08:28:39;;;;;;;1.60;1.30;;;;;;;19.20;57.60;100453.96;106175;1271;137886;-72
2022/09/21 08:31:11;;;;;;;2.00;1.20;;;;;;;18.77;57.16;100459.73;106364;1270;97802;-71
2022/09/21 08:33:44;;;;;;;2.10;1.10;;;;;;;18.34;57.48;100462.04;106299;1268;137772;-71
2022/09/21 08:36:16;;;;;;;1.80;1.30;;;;;;;17.95;57.85;100458.39;106197;1271;108044;-72
2022/09/21 08:38:49;;;;;;;3.80;1.40;;;;;;;17.60;58.61;100463.58;106106;1271;137974;-71
2022/09/21 08:41:25;;;;;;;2.30;1.40;;;;;;;17.32;59.05;100463.77;106286;1270;97856;-71
2022/09/21 08:44:04;;;;;;;2.80;1.80;;;;;;;17.02;59.52;100463.52;106432;1269;97765;-72
2022/09/21 08:46:39;;;;;;;17.60;10.30;;;;;;;16.72;59.95;100470.75;106223;1268;137885;-71
2022/09/21 08:49:16;;;;;;;19.30;10.20;;;;;;;16.44;60.21;100470.52;106498;1269;108827;-72
2022/09/21 08:51:52;;;;;;;6.40;4.40;;;;;;;16.16;60.47;100469.70;106305;1270;138241;-73
2022/09/21 08:54:29;;;;;;;5.80;2.50;;;;;;;15.92;60.79;100475.83;106407;1271;97827;-72
2022/09/21 08:56:59;;;;;;;;;;;;;;;15.76;61.28;100477.35;106335;1270;137840;-72
2022/09/21 08:59:44;;;;;;;1.70;1.30;;;;;;;15.65;61.57;100473.71;106325;1268;111354;-72
2022/09/21 09:02:33;;;;;;;2.20;1.50;;;;;;;15.58;61.62;100473.61;106376;1270;108473;-71
2022/09/21 09:05:19;;;;;;;2.40;1.50;;;;;;;15.48;61.40;100473.97;106306;1271;107751;-74
2022/09/21 09:08:06;;;;;;;1.70;1.50;;;;;;;15.36;61.50;100479.60;106386;1268;97846;-71
2022/09/21 09:10:43;;;;;;;1.80;1.40;;;;;;;15.29;61.96;100483.13;106311;1268;138683;-71
2022/09/21 09:13:33;;;;;;;4.40;1.50;;;;;;;15.28;62.06;100482.48;106357;1269;112486;-71
2022/09/21 09:16:18;;;;;;;1.80;1.30;;;;;;;15.36;62.58;100482.60;106239;1268;137806;-71
2022/09/21 09:18:54;;;;;;;2.10;1.50;;;;;;;15.67;62.94;100476.56;106325;1269;108299;-70
2022/09/21 09:21:34;;;;;;;3.10;1.40;;;;;;;15.82;62.70;100477.41;106205;1268;137988;-70
2022/09/21 09:24:15;;;;;;;1.50;1.10;;;;;;;15.79;62.11;100475.98;106240;1268;97864;-69
2022/09/21 09:26:52;;;;;;;2.60;1.60;;;;;;;15.67;62.15;100477.25;106264;1268;137805;-71
2022/09/21 09:29:31;;;;;;;4.30;2.70;;;;;;;15.55;62.19;100475.03;106431;1268;108313;-73
2022/09/21 09:32:05;;;;;;;3.10;1.60;;;;;;;15.46;62.26;100479.67;106091;1268;107743;-71
2022/09/21 09:34:43;;;;;;;1.80;1.20;;;;;;;15.37;62.03;100486.77;105992;1271;137781;-73
2022/09/21 09:37:17;;;;;;;1.40;1.30;;;;;;;15.39;62.36;100484.21;106147;1268;97791;-71
2022/09/21 09:39:55;;;;;;;1.80;1.30;;;;;;;15.48;62.25;100475.17;106260;1268;137609;-72
2022/09/21 09:42:41;;;;;;;3.30;1.60;;;;;;;15.62;62.13;100477.34;106356;1268;108837;-70
2022/09/21 09:45:50;;;;;;;2.50;1.50;;;;;;;15.69;62.02;100480.50;106077;1268;138179;-71
2022/09/21 09:48:49;;;;;;;2.50;2.00;;;;;;;15.69;61.49;100478.40;106310;1270;97880;-71
2022/09/21 09:51:25;;;;;;;3.30;1.80;;;;;;;15.63;61.61;100478.51;106216;1268;139659;-71
2022/09/21 09:54:02;;;;;;;3.70;1.90;;;;;;;15.63;61.57;100472.39;106183;1268;113244;-70
2022/09/21 09:56:40;;;;;;;2.60;1.70;;;;;;;15.64;61.63;100472.36;106272;1268;138814;-71
2022/09/21 09:59:23;;;;;;;1.40;1.20;;;;;;;15.69;61.72;100474.20;106236;1270;108856;-70
2022/09/21 10:02:04;;;;;;;2.50;1.10;;;;;;;15.89;61.88;100475.64;107172;1268;97831;-70
2022/09/21 10:04:36;;;;;;;2.90;1.60;;;;;;;16.15;61.50;100472.90;107060;1270;137560;-74
2022/09/21 10:07:19;;;;;;;1.70;1.20;;;;;;;16.40;61.74;100470.89;106274;1268;112712;-70
2022/09/21 10:09:51;;;;;;;1.20;1.00;;;;;;;16.80;61.32;100465.64;106197;1268;138434;-71
2022/09/21 10:12:26;;;;;;;2.40;0.90;;;;;;;17.46;61.55;100463.34;106258;1270;107876;-72
2022/09/21 10:15:00;;;;;;;1.80;0.80;;;;;;;18.17;61.64;100459.18;106252;1268;137987;-72
2022/09/21 10:17:32;;;;;;;9.90;5.20;;;;;;;18.87;61.06;100460.49;106441;1269;97831;-71
2022/09/21 10:20:16;;;;;;;2.10;1.20;;;;;;;19.37;59.30;100453.91;106391;1269;111501;-72
2022/09/21 10:22:55;;;;;;;1.80;1.10;;;;;;;19.90;58.61;100446.75;106637;1270;137791;-72
2022/09/21 10:25:27;;;;;;;3.00;1.00;;;;;;;20.52;57.65;100454.31;106305;1270;107496;-72
2022/09/21 10:28:01;;;;;;;1.80;1.10;;;;;;;21.08;57.32;100454.14;106217;1268;137868;-72
2022/09/21 10:30:38;;;;;;;2.20;0.90;;;;;;;21.62;56.21;100450.52;106318;1268;97704;-72
2022/09/21 10:33:21;;;;;;;2.80;1.00;;;;;;;21.99;55.14;100445.78;106424;1270;137806;-71
2022/09/21 10:35:55;;;;;;;1.00;0.70;;;;;;;22.15;53.52;100444.46;106380;1269;108899;-71
2022/09/21 10:38:29;;;;;;;1.80;0.80;;;;;;;21.95;51.60;100442.19;106241;1269;108974;-73
2022/09/21 10:41:01;;;;;;;3.50;2.60;;;;;;;21.56;51.04;100448.13;106334;1270;97823;-71
2022/09/21 10:43:40;;;;;;;4.00;2.70;;;;;;;21.14;50.87;100451.79;106250;1269;97837;-71
2022/09/21 10:46:15;;;;;;;3.20;1.50;;;;;;;20.68;50.99;100454.00;106222;1269;139078;-73
2022/09/21 10:48:48;;;;;;;3.70;1.30;;;;;;;20.52;51.50;100453.23;106324;1270;107805;-72
2022/09/21 10:51:30;;;;;;;3.20;1.20;;;;;;;20.55;51.83;100449.66;106259;1270;138428;-72
2022/09/21 10:54:08;;;;;;;0.80;0.80;;;;;;;20.66;51.59;100451.05;106331;1269;97882;-72
2022/09/21 10:56:52;;;;;;;1.60;1.20;;;;;;;20.81;51.93;100449.08;106304;1271;139950;-72
2022/09/21 10:59:28;;;;;;;1.30;0.90;;;;;;;21.02;52.24;100444.91;106264;1270;112650;-71
2022/09/21 11:02:02;;;;;;;2.60;0.90;;;;;;;21.23;51.51;100446.91;106515;1270;108874;-71
2022/09/21 11:04:45;;;;;;;1.00;0.70;;;;;;;21.35;50.62;100442.48;106125;1271;138573;-73
2022/09/21 11:07:23;;;;;;;2.60;0.80;;;;;;;21.31;49.74;100441.59;106265;1270;99643;-72
2022/09/21 11:10:03;;;;;;;1.50;1.40;;;;;;;21.11;49.66;100444.00;107714;1270;137806;-73
2022/09/21 11:12:49;;;;;;;3.50;0.80;;;;;;;21.13;49.89;100440.88;106758;1270;111574;-71
2022/09/21 11:15:33;;;;;;;5.20;1.10;;;;;;;21.20;49.32;100442.33;106120;1268;139752;-74
2022/09/21 11:18:16;;;;;;;3.70;1.00;;;;;;;21.24;48.83;100440.63;106218;1270;107926;-73
2022/09/21 11:20:53;;;;;;;4.00;1.10;;;;;;;21.09;48.38;100437.65;105980;1269;138748;-73
2022/09/21 11:23:44;;;;;;;4.50;0.90;;;;;;;20.87;48.46;100436.81;105931;1268;99258;-73
2022/09/21 11:26:23;;;;;;;2.90;0.80;;;;;;;20.62;48.34;100442.80;106080;1268;110742;-73
2022/09/21 11:29:02;;;;;;;3.00;1.10;;;;;;;20.27;48.47;100444.70;106015;1269;139433;-72
2022/09/21 11:32:01;;;;;;;3.00;1.00;;;;;;;19.97;48.81;100441.45;105997;1268;107782;-74
2022/09/21 11:35:08;;;;;;;5.00;0.70;;;;;;;19.70;48.63;100441.76;107587;1268;138224;-73
2022/09/21 11:37:58;;;;;;;3.20;0.90;;;;;;;19.52;49.46;100443.61;107657;1268;97366;-73
2022/09/21 11:40:42;;;;;;;2.60;0.90;;;;;;;19.42;49.48;100440.21;107574;1269;138177;-71
2022/09/21 11:43:30;;;;;;;4.20;1.10;;;;;;;19.20;49.51;100441.11;107753;1268;107770;-72
2022/09/21 11:46:15;;;;;;;1.90;1.40;;;;;;;19.00;49.44;100443.47;107732;1270;138052;-71
2022/09/21 11:49:00;;;;;;;2.40;1.30;;;;;;;18.80;50.09;100444.06;107782;1269;97844;-72
2022/09/21 11:51:52;;;;;;;5.00;2.00;;;;;;;18.65;50.53;100439.30;106205;1265;142255;-71
2022/09/21 11:54:50;;;;;;;2.00;0.80;;;;;;;18.63;50.57;100435.38;106197;1269;114599;-74